Taiki Maru — JI3464 — position and weather

sailwx.info

Track history (hours):
 
Tides and Currents Weather Stations Pressure Air Temp Water Temp Dewpoint Dewpoint Depression Visibility Wind Speed Wind Dir Waves Ship Positions

Taiki Maru

Last reported at 2015-Aug-03 09:23 UTC. Time now 2015-Aug-03 23:22 UTC.
Position N 34°58' E 139°28'.

Length 93 m; draft 5.2 m.

Type: Cargo ship. MMSI: 431300622.

Date/timePositionNaut miles runAvg speedWind from/ knotsBaromVisibWave heightAir tempDewpointWater temp
2015-Aug-03 09:23N 34°58' E 139°28'911.5
2015-Aug-03 08:34N 35°04' E 139°37'1212.4
2015-Aug-03 07:34N 35°13' E 139°46'1211.8
2015-Aug-03 06:34N 35°25' E 139°42'5 4.6
2015-Aug-03 05:33N 35°29' E 139°40'0 0.0
2015-Aug-03 04:34N 35°29' E 139°40'0 0.0
2015-Aug-03 03:34N 35°29' E 139°40'0 0.0
2015-Aug-03 02:33N 35°29' E 139°40'0 0.0
2015-Aug-03 01:33N 35°29' E 139°40'0 0.0
2015-Aug-03 00:33N 35°29' E 139°40'0 0.0
2015-Aug-02 23:33N 35°29' E 139°40'0 0.0
2015-Aug-02 22:34N 35°29' E 139°40'0 0.0
2015-Aug-02 21:33N 35°29' E 139°40'0 0.0
2015-Aug-02 20:34N 35°29' E 139°40'0 0.0
2015-Aug-02 19:34N 35°29' E 139°40'0 0.0
2015-Aug-02 18:34N 35°29' E 139°40'0 0.0
2015-Aug-02 17:33N 35°29' E 139°40'0 0.0
2015-Aug-02 16:33N 35°29' E 139°40'0 0.0
2015-Aug-02 15:33N 35°29' E 139°40'0 0.0
2015-Aug-02 14:33N 35°29' E 139°40'0 0.0
2015-Aug-02 13:33N 35°29' E 139°40'0 0.0
2015-Aug-02 12:33N 35°29' E 139°40'0 0.0
2015-Aug-02 11:34N 35°29' E 139°40'0 0.0
2015-Aug-02 10:34N 35°29' E 139°40'1 1.1
2015-Aug-02 09:33N 35°28' E 139°40'3 2.5
2015-Aug-02 08:32N 35°26' E 139°42'0 0.0
2015-Aug-02 07:32N 35°26' E 139°42'0 0.0
2015-Aug-02 06:32N 35°26' E 139°42'0 0.0
2015-Aug-02 05:33N 35°26' E 139°42'10 9.8
2015-Aug-02 04:33N 35°16' E 139°46'1212.4
2015-Aug-02 03:33N 35°04' E 139°43'1513.9
2015-Aug-02 02:29N 34°55' E 139°29'22511.2
2015-Aug-01 06:18N 34°04' E 135°03'5 0.7
2015-Jul-31 23:10N 34°07' E 135°08'2 2.5
2015-Jul-31 22:33N 34°08' E 135°06'0 0.0
2015-Jul-31 21:33N 34°08' E 135°06'0 0.1
2015-Jul-31 20:33N 34°08' E 135°06'4 3.5
2015-Jul-31 19:33N 34°06' E 135°02'232 6.4
2015-Jul-30 07:05N 33°56' E 130°23'713.5
2015-Jul-30 06:33N 33°52' E 130°15'1313.2
2015-Jul-30 05:34N 33°44' E 130°02'2 0.1
2015-Jul-28 22:33N 33°44' E 130°01'1211.5
2015-Jul-28 21:30N 33°51' E 130°13'  
Track history (hours):
 
Tides and Currents Weather Stations Pressure Air Temp Water Temp Dewpoint Dewpoint Depression Visibility Wind Speed Wind Dir Waves Ship Positions

Taiki Maru

Last reported at 2015-Aug-03 09:23 UTC. Time now 2015-Aug-03 23:22 UTC.
Position N 34°58' E 139°28'.

Length 93 m; draft 5.2 m.

Type: Cargo ship. MMSI: 431300622.

Date/timePositionNaut miles runAvg speedWind from/ knotsBaromVisibWave heightAir tempDewpointWater temp
2015-Aug-03 09:23N 34°58' E 139°28'911.5
2015-Aug-03 08:34N 35°04' E 139°37'1212.4
2015-Aug-03 07:34N 35°13' E 139°46'1211.8
2015-Aug-03 06:34N 35°25' E 139°42'5 4.6
2015-Aug-03 05:33N 35°29' E 139°40'0 0.0
2015-Aug-03 04:34N 35°29' E 139°40'0 0.0
2015-Aug-03 03:34N 35°29' E 139°40'0 0.0
2015-Aug-03 02:33N 35°29' E 139°40'0 0.0
2015-Aug-03 01:33N 35°29' E 139°40'0 0.0
2015-Aug-03 00:33N 35°29' E 139°40'0 0.0
2015-Aug-02 23:33N 35°29' E 139°40'0 0.0
2015-Aug-02 22:34N 35°29' E 139°40'0 0.0
2015-Aug-02 21:33N 35°29' E 139°40'0 0.0
2015-Aug-02 20:34N 35°29' E 139°40'0 0.0
2015-Aug-02 19:34N 35°29' E 139°40'0 0.0
2015-Aug-02 18:34N 35°29' E 139°40'0 0.0
2015-Aug-02 17:33N 35°29' E 139°40'0 0.0
2015-Aug-02 16:33N 35°29' E 139°40'0 0.0
2015-Aug-02 15:33N 35°29' E 139°40'0 0.0
2015-Aug-02 14:33N 35°29' E 139°40'0 0.0
2015-Aug-02 13:33N 35°29' E 139°40'0 0.0
2015-Aug-02 12:33N 35°29' E 139°40'0 0.0
2015-Aug-02 11:34N 35°29' E 139°40'0 0.0
2015-Aug-02 10:34N 35°29' E 139°40'1 1.1
2015-Aug-02 09:33N 35°28' E 139°40'3 2.5
2015-Aug-02 08:32N 35°26' E 139°42'0 0.0
2015-Aug-02 07:32N 35°26' E 139°42'0 0.0
2015-Aug-02 06:32N 35°26' E 139°42'0 0.0
2015-Aug-02 05:33N 35°26' E 139°42'10 9.8
2015-Aug-02 04:33N 35°16' E 139°46'1212.4
2015-Aug-02 03:33N 35°04' E 139°43'1513.9
2015-Aug-02 02:29N 34°55' E 139°29'22511.2
2015-Aug-01 06:18N 34°04' E 135°03'5 0.7
2015-Jul-31 23:10N 34°07' E 135°08'2 2.5
2015-Jul-31 22:33N 34°08' E 135°06'0 0.0
2015-Jul-31 21:33N 34°08' E 135°06'0 0.1
2015-Jul-31 20:33N 34°08' E 135°06'4 3.5
2015-Jul-31 19:33N 34°06' E 135°02'232 6.4
2015-Jul-30 07:05N 33°56' E 130°23'713.5
2015-Jul-30 06:33N 33°52' E 130°15'1313.2
2015-Jul-30 05:34N 33°44' E 130°02'2 0.1
2015-Jul-28 22:33N 33°44' E 130°01'1211.5
2015-Jul-28 21:30N 33°51' E 130°13'  

Dump ship's entire track history